Martinsville, Virginia
Current Conditions -  °F | °C
As of 11:35 AM on Tuesday 21 Oct 2014 (Local Time) from KMTV Reporting Station
Clear Clear  
Wind Chill: 20°   Ceiling: Unl
Heat Index: 20°   Visibility: 10mi
Dew Point:   Wind: 5mph
Humidity: 50%   Direction: 320°NW
Pressure: 29.95"   Gusts: NA
Location:  36.69°N, 79.87°W
Report Text: KMTV 211535Z AUTO 32004KT 10SM CLR 20/09 A2995 RMK AO2 T02000094
Loading
Personal Weather Stations






























Interactive Weather Map New forecast layout! Learn more

10-Day Weather Forecast

Advertisements
Track Severe Weather on mobile